sensor_id;sensor_type;location;lat;lon;timestamp;temperature;humidity
13598;DHT22;38563;54.258;12.574;2022-09-11T00:01:24;14.00;99.90
13598;DHT22;38563;54.258;12.574;2022-09-11T00:03:52;14.10;99.90
13598;DHT22;38563;54.258;12.574;2022-09-11T00:06:19;14.20;99.90
13598;DHT22;38563;54.258;12.574;2022-09-11T00:08:46;14.20;99.90
13598;DHT22;38563;54.258;12.574;2022-09-11T00:11:16;14.20;99.90
13598;DHT22;38563;54.258;12.574;2022-09-11T00:13:46;14.10;99.90
13598;DHT22;38563;54.258;12.574;2022-09-11T00:16:18;14.10;99.90
13598;DHT22;38563;54.258;12.574;2022-09-11T00:18:46;14.10;99.90
13598;DHT22;38563;54.258;12.574;2022-09-11T00:21:13;14.00;99.90
13598;DHT22;38563;54.258;12.574;2022-09-11T00:23:40;14.00;99.90
13598;DHT22;38563;54.258;12.574;2022-09-11T00:26:08;14.00;99.90
13598;DHT22;38563;54.258;12.574;2022-09-11T00:28:36;14.00;99.90
13598;DHT22;38563;54.258;12.574;2022-09-11T00:31:05;14.00;99.90
13598;DHT22;38563;54.258;12.574;2022-09-11T00:33:34;14.00;99.90
13598;DHT22;38563;54.258;12.574;2022-09-11T00:36:03;13.90;99.90
13598;DHT22;38563;54.258;12.574;2022-09-11T00:38:32;14.00;99.90
13598;DHT22;38563;54.258;12.574;2022-09-11T00:41:00;13.90;99.90
13598;DHT22;38563;54.258;12.574;2022-09-11T00:43:29;13.90;99.90
13598;DHT22;38563;54.258;12.574;2022-09-11T00:46:00;13.90;99.90
13598;DHT22;38563;54.258;12.574;2022-09-11T00:48:30;13.90;99.90
13598;DHT22;38563;54.258;12.574;2022-09-11T00:51:01;13.90;99.90
13598;DHT22;38563;54.258;12.574;2022-09-11T00:53:31;13.90;99.90
13598;DHT22;38563;54.258;12.574;2022-09-11T00:56:00;13.90;99.90
13598;DHT22;38563;54.258;12.574;2022-09-11T00:58:33;13.90;99.90
13598;DHT22;38563;54.258;12.574;2022-09-11T01:01:03;13.90;99.90
13598;DHT22;38563;54.258;12.574;2022-09-11T01:03:30;13.90;99.90
13598;DHT22;38563;54.258;12.574;2022-09-11T01:05:58;13.90;99.90
13598;DHT22;38563;54.258;12.574;2022-09-11T01:08:25;13.80;99.90
13598;DHT22;38563;54.258;12.574;2022-09-11T01:11:01;13.80;99.90
13598;DHT22;38563;54.258;12.574;2022-09-11T01:13:35;13.90;99.90
13598;DHT22;38563;54.258;12.574;2022-09-11T01:16:11;14.00;99.90
13598;DHT22;38563;54.258;12.574;2022-09-11T01:18:41;14.00;99.90
13598;DHT22;38563;54.258;12.574;2022-09-11T01:21:35;14.00;99.90
13598;DHT22;38563;54.258;12.574;2022-09-11T01:24:16;14.10;99.90
13598;DHT22;38563;54.258;12.574;2022-09-11T01:27:09;14.00;99.90
13598;DHT22;38563;54.258;12.574;2022-09-11T01:29:44;14.00;99.90
13598;DHT22;38563;54.258;12.574;2022-09-11T01:32:19;14.00;99.90
13598;DHT22;38563;54.258;12.574;2022-09-11T01:34:51;14.00;99.90
13598;DHT22;38563;54.258;12.574;2022-09-11T01:37:23;13.90;99.90
13598;DHT22;38563;54.258;12.574;2022-09-11T01:40:00;13.90;99.90
13598;DHT22;38563;54.258;12.574;2022-09-11T01:42:32;13.80;99.90
13598;DHT22;38563;54.258;12.574;2022-09-11T01:45:04;13.80;99.90
13598;DHT22;38563;54.258;12.574;2022-09-11T01:47:32;13.70;99.90
13598;DHT22;38563;54.258;12.574;2022-09-11T01:50:02;13.60;99.90
13598;DHT22;38563;54.258;12.574;2022-09-11T01:52:34;13.60;99.90
13598;DHT22;38563;54.258;12.574;2022-09-11T01:55:07;13.60;99.90
13598;DHT22;38563;54.258;12.574;2022-09-11T01:57:39;13.60;99.90
13598;DHT22;38563;54.258;12.574;2022-09-11T02:00:11;13.60;99.90
13598;DHT22;38563;54.258;12.574;2022-09-11T02:02:44;13.60;99.90
13598;DHT22;38563;54.258;12.574;2022-09-11T02:05:15;13.50;99.90
13598;DHT22;38563;54.258;12.574;2022-09-11T02:07:47;13.50;99.90
13598;DHT22;38563;54.258;12.574;2022-09-11T02:10:17;13.50;99.90
13598;DHT22;38563;54.258;12.574;2022-09-11T02:12:52;13.50;99.90
13598;DHT22;38563;54.258;12.574;2022-09-11T02:15:22;13.40;99.90
13598;DHT22;38563;54.258;12.574;2022-09-11T02:17:58;13.40;99.90
13598;DHT22;38563;54.258;12.574;2022-09-11T02:20:28;13.40;99.90
13598;DHT22;38563;54.258;12.574;2022-09-11T02:22:56;13.30;99.90
13598;DHT22;38563;54.258;12.574;2022-09-11T02:25:23;13.30;99.90
13598;DHT22;38563;54.258;12.574;2022-09-11T02:27:54;13.20;99.90
13598;DHT22;38563;54.258;12.574;2022-09-11T02:30:23;13.20;99.90
13598;DHT22;38563;54.258;12.574;2022-09-11T02:32:53;13.10;99.90
13598;DHT22;38563;54.258;12.574;2022-09-11T02:35:22;13.10;99.90
13598;DHT22;38563;54.258;12.574;2022-09-11T02:37:55;13.10;99.90
13598;DHT22;38563;54.258;12.574;2022-09-11T02:40:33;13.10;99.90
13598;DHT22;38563;54.258;12.574;2022-09-11T02:43:32;13.00;99.90
13598;DHT22;38563;54.258;12.574;2022-09-11T02:46:18;13.00;99.90
13598;DHT22;38563;54.258;12.574;2022-09-11T02:48:55;13.00;99.90
13598;DHT22;38563;54.258;12.574;2022-09-11T02:51:30;13.00;99.90
13598;DHT22;38563;54.258;12.574;2022-09-11T02:54:22;13.00;99.90
13598;DHT22;38563;54.258;12.574;2022-09-11T02:57:01;13.00;99.90
13598;DHT22;38563;54.258;12.574;2022-09-11T02:59:32;13.00;99.90
13598;DHT22;38563;54.258;12.574;2022-09-11T03:02:03;13.00;99.90
13598;DHT22;38563;54.258;12.574;2022-09-11T03:04:29;13.00;99.90
13598;DHT22;38563;54.258;12.574;2022-09-11T03:06:57;13.00;99.90
13598;DHT22;38563;54.258;12.574;2022-09-11T03:09:24;13.00;99.90
13598;DHT22;38563;54.258;12.574;2022-09-11T03:11:57;13.00;99.90
13598;DHT22;38563;54.258;12.574;2022-09-11T03:14:23;12.90;99.90
13598;DHT22;38563;54.258;12.574;2022-09-11T03:16:50;12.90;99.90
13598;DHT22;38563;54.258;12.574;2022-09-11T03:19:19;12.90;99.90
13598;DHT22;38563;54.258;12.574;2022-09-11T03:21:46;12.90;99.90
13598;DHT22;38563;54.258;12.574;2022-09-11T03:24:13;12.90;99.90
13598;DHT22;38563;54.258;12.574;2022-09-11T03:26:42;12.90;99.90
13598;DHT22;38563;54.258;12.574;2022-09-11T03:29:09;12.90;99.90
13598;DHT22;38563;54.258;12.574;2022-09-11T03:31:35;12.90;99.90
13598;DHT22;38563;54.258;12.574;2022-09-11T03:34:03;12.90;99.90
13598;DHT22;38563;54.258;12.574;2022-09-11T03:36:33;13.10;99.90
13598;DHT22;38563;54.258;12.574;2022-09-11T03:39:00;13.20;99.90
13598;DHT22;38563;54.258;12.574;2022-09-11T03:41:27;13.20;99.90
13598;DHT22;38563;54.258;12.574;2022-09-11T03:43:54;13.20;99.90
13598;DHT22;38563;54.258;12.574;2022-09-11T03:46:21;13.20;99.90
13598;DHT22;38563;54.258;12.574;2022-09-11T03:48:48;13.20;99.90
13598;DHT22;38563;54.258;12.574;2022-09-11T03:51:18;13.20;99.90
13598;DHT22;38563;54.258;12.574;2022-09-11T03:53:46;13.30;99.90
13598;DHT22;38563;54.258;12.574;2022-09-11T03:56:14;13.30;99.90
13598;DHT22;38563;54.258;12.574;2022-09-11T03:58:45;13.40;99.90
13598;DHT22;38563;54.258;12.574;2022-09-11T04:01:15;13.40;99.90
13598;DHT22;38563;54.258;12.574;2022-09-11T04:03:44;13.40;99.90
13598;DHT22;38563;54.258;12.574;2022-09-11T04:06:20;13.40;99.90
13598;DHT22;38563;54.258;12.574;2022-09-11T04:08:48;13.50;99.90
13598;DHT22;38563;54.258;12.574;2022-09-11T04:11:14;13.50;99.90
13598;DHT22;38563;54.258;12.574;2022-09-11T04:13:41;13.50;99.90
13598;DHT22;38563;54.258;12.574;2022-09-11T04:16:13;13.60;99.90
13598;DHT22;38563;54.258;12.574;2022-09-11T04:18:42;13.60;99.90
13598;DHT22;38563;54.258;12.574;2022-09-11T04:21:12;13.70;99.90
13598;DHT22;38563;54.258;12.574;2022-09-11T04:23:39;13.70;99.90
13598;DHT22;38563;54.258;12.574;2022-09-11T04:26:13;13.70;99.90
13598;DHT22;38563;54.258;12.574;2022-09-11T04:28:42;13.70;99.90
13598;DHT22;38563;54.258;12.574;2022-09-11T04:31:11;13.60;99.90
13598;DHT22;38563;54.258;12.574;2022-09-11T04:33:38;13.70;99.90
13598;DHT22;38563;54.258;12.574;2022-09-11T04:36:06;13.70;99.90
13598;DHT22;38563;54.258;12.574;2022-09-11T04:38:33;13.70;99.90
13598;DHT22;38563;54.258;12.574;2022-09-11T04:41:02;13.80;99.90
13598;DHT22;38563;54.258;12.574;2022-09-11T04:43:32;13.80;99.90
13598;DHT22;38563;54.258;12.574;2022-09-11T04:46:01;13.90;99.90
13598;DHT22;38563;54.258;12.574;2022-09-11T04:48:27;13.90;99.90
13598;DHT22;38563;54.258;12.574;2022-09-11T04:50:59;13.90;99.90
13598;DHT22;38563;54.258;12.574;2022-09-11T04:53:26;13.90;99.90
13598;DHT22;38563;54.258;12.574;2022-09-11T04:56:02;14.00;99.90
13598;DHT22;38563;54.258;12.574;2022-09-11T04:58:38;14.00;99.90
13598;DHT22;38563;54.258;12.574;2022-09-11T05:01:06;14.10;99.90
13598;DHT22;38563;54.258;12.574;2022-09-11T05:03:32;14.20;99.90
13598;DHT22;38563;54.258;12.574;2022-09-11T05:06:03;14.20;99.90
13598;DHT22;38563;54.258;12.574;2022-09-11T05:08:30;14.30;99.90
13598;DHT22;38563;54.258;12.574;2022-09-11T05:10:59;14.40;99.90
13598;DHT22;38563;54.258;12.574;2022-09-11T05:13:26;14.50;99.90
13598;DHT22;38563;54.258;12.574;2022-09-11T05:16:01;14.60;99.90
13598;DHT22;38563;54.258;12.574;2022-09-11T05:18:29;14.60;99.90
13598;DHT22;38563;54.258;12.574;2022-09-11T05:21:00;14.60;99.90
13598;DHT22;38563;54.258;12.574;2022-09-11T05:23:27;14.70;99.90
13598;DHT22;38563;54.258;12.574;2022-09-11T05:25:57;14.70;99.90
13598;DHT22;38563;54.258;12.574;2022-09-11T05:28:25;14.70;99.90
13598;DHT22;38563;54.258;12.574;2022-09-11T05:30:53;14.70;99.90
13598;DHT22;38563;54.258;12.574;2022-09-11T05:33:23;14.70;99.90
13598;DHT22;38563;54.258;12.574;2022-09-11T05:35:50;14.80;99.90
13598;DHT22;38563;54.258;12.574;2022-09-11T05:38:21;14.80;99.90
13598;DHT22;38563;54.258;12.574;2022-09-11T05:40:50;14.90;99.90
13598;DHT22;38563;54.258;12.574;2022-09-11T05:43:20;15.10;99.90
13598;DHT22;38563;54.258;12.574;2022-09-11T05:45:53;15.20;99.90
13598;DHT22;38563;54.258;12.574;2022-09-11T05:48:22;15.30;99.90
13598;DHT22;38563;54.258;12.574;2022-09-11T05:50:53;15.40;99.90
13598;DHT22;38563;54.258;12.574;2022-09-11T05:53:21;15.50;99.90
13598;DHT22;38563;54.258;12.574;2022-09-11T05:55:48;15.60;99.90
13598;DHT22;38563;54.258;12.574;2022-09-11T05:58:17;15.60;99.90
13598;DHT22;38563;54.258;12.574;2022-09-11T06:00:44;15.70;99.90
13598;DHT22;38563;54.258;12.574;2022-09-11T06:03:12;15.70;99.90
13598;DHT22;38563;54.258;12.574;2022-09-11T06:05:40;15.80;99.90
13598;DHT22;38563;54.258;12.574;2022-09-11T06:08:07;15.80;99.90
13598;DHT22;38563;54.258;12.574;2022-09-11T06:10:35;15.90;99.90
13598;DHT22;38563;54.258;12.574;2022-09-11T06:13:03;15.90;99.90
13598;DHT22;38563;54.258;12.574;2022-09-11T06:15:33;16.00;99.90
13598;DHT22;38563;54.258;12.574;2022-09-11T06:17:59;16.10;99.90
13598;DHT22;38563;54.258;12.574;2022-09-11T06:20:26;16.30;99.90
13598;DHT22;38563;54.258;12.574;2022-09-11T06:22:55;16.30;99.90
13598;DHT22;38563;54.258;12.574;2022-09-11T06:25:24;16.30;99.90
13598;DHT22;38563;54.258;12.574;2022-09-11T06:27:51;16.40;99.90
13598;DHT22;38563;54.258;12.574;2022-09-11T06:30:18;16.40;99.90
13598;DHT22;38563;54.258;12.574;2022-09-11T06:32:47;16.50;99.90
13598;DHT22;38563;54.258;12.574;2022-09-11T06:35:14;16.50;99.90
13598;DHT22;38563;54.258;12.574;2022-09-11T06:37:41;16.50;99.90
13598;DHT22;38563;54.258;12.574;2022-09-11T06:40:10;16.60;99.90
13598;DHT22;38563;54.258;12.574;2022-09-11T06:42:38;16.60;99.90
13598;DHT22;38563;54.258;12.574;2022-09-11T06:45:06;16.60;99.90
13598;DHT22;38563;54.258;12.574;2022-09-11T06:47:33;16.60;99.90
13598;DHT22;38563;54.258;12.574;2022-09-11T06:50:00;16.60;99.90
13598;DHT22;38563;54.258;12.574;2022-09-11T06:52:35;16.60;99.90
13598;DHT22;38563;54.258;12.574;2022-09-11T06:55:11;16.60;99.90
13598;DHT22;38563;54.258;12.574;2022-09-11T06:57:40;16.60;99.90
13598;DHT22;38563;54.258;12.574;2022-09-11T07:00:10;16.70;99.90
13598;DHT22;38563;54.258;12.574;2022-09-11T07:02:39;16.60;99.90
13598;DHT22;38563;54.258;12.574;2022-09-11T07:05:08;16.60;99.90
13598;DHT22;38563;54.258;12.574;2022-09-11T07:07:36;16.70;99.90
13598;DHT22;38563;54.258;12.574;2022-09-11T07:10:06;16.60;99.90
13598;DHT22;38563;54.258;12.574;2022-09-11T07:12:37;16.50;99.90
13598;DHT22;38563;54.258;12.574;2022-09-11T07:15:05;16.50;99.90
13598;DHT22;38563;54.258;12.574;2022-09-11T07:17:32;16.40;99.90
13598;DHT22;38563;54.258;12.574;2022-09-11T07:19:59;16.30;99.90
13598;DHT22;38563;54.258;12.574;2022-09-11T07:22:28;16.30;99.90
13598;DHT22;38563;54.258;12.574;2022-09-11T07:24:55;16.20;99.90
13598;DHT22;38563;54.258;12.574;2022-09-11T07:27:25;16.20;99.90
13598;DHT22;38563;54.258;12.574;2022-09-11T07:29:53;16.30;99.90
13598;DHT22;38563;54.258;12.574;2022-09-11T07:32:20;16.30;99.90
13598;DHT22;38563;54.258;12.574;2022-09-11T07:34:47;16.20;99.90
13598;DHT22;38563;54.258;12.574;2022-09-11T07:37:14;16.30;99.90
13598;DHT22;38563;54.258;12.574;2022-09-11T07:39:41;16.30;99.90
13598;DHT22;38563;54.258;12.574;2022-09-11T07:42:14;16.30;99.90
13598;DHT22;38563;54.258;12.574;2022-09-11T07:44:42;16.20;99.90
13598;DHT22;38563;54.258;12.574;2022-09-11T07:47:10;16.20;99.90
13598;DHT22;38563;54.258;12.574;2022-09-11T07:49:41;16.20;99.90
13598;DHT22;38563;54.258;12.574;2022-09-11T07:52:11;16.30;99.90
13598;DHT22;38563;54.258;12.574;2022-09-11T07:54:42;16.30;99.90
13598;DHT22;38563;54.258;12.574;2022-09-11T07:57:10;16.50;99.90
13598;DHT22;38563;54.258;12.574;2022-09-11T07:59:37;16.70;99.90
13598;DHT22;38563;54.258;12.574;2022-09-11T08:02:04;16.80;99.90
13598;DHT22;38563;54.258;12.574;2022-09-11T08:04:33;16.90;99.90
13598;DHT22;38563;54.258;12.574;2022-09-11T08:07:00;17.10;99.90
13598;DHT22;38563;54.258;12.574;2022-09-11T08:09:32;17.00;99.90
13598;DHT22;38563;54.258;12.574;2022-09-11T08:12:01;17.10;99.90
13598;DHT22;38563;54.258;12.574;2022-09-11T08:14:30;17.30;99.90
13598;DHT22;38563;54.258;12.574;2022-09-11T08:17:04;17.30;99.90
13598;DHT22;38563;54.258;12.574;2022-09-11T08:19:32;17.40;99.90
13598;DHT22;38563;54.258;12.574;2022-09-11T08:22:00;17.50;99.90
13598;DHT22;38563;54.258;12.574;2022-09-11T08:24:32;17.70;99.90
13598;DHT22;38563;54.258;12.574;2022-09-11T08:27:02;17.70;99.90
13598;DHT22;38563;54.258;12.574;2022-09-11T08:29:30;17.80;99.90
13598;DHT22;38563;54.258;12.574;2022-09-11T08:31:59;17.80;99.90
13598;DHT22;38563;54.258;12.574;2022-09-11T08:34:27;17.80;99.90
13598;DHT22;38563;54.258;12.574;2022-09-11T08:36:54;17.90;99.90
13598;DHT22;38563;54.258;12.574;2022-09-11T08:39:24;17.80;99.90
13598;DHT22;38563;54.258;12.574;2022-09-11T08:42:00;17.90;99.90
13598;DHT22;38563;54.258;12.574;2022-09-11T08:44:30;18.00;99.90
13598;DHT22;38563;54.258;12.574;2022-09-11T08:47:15;17.90;99.90
13598;DHT22;38563;54.258;12.574;2022-09-11T08:49:50;18.10;99.90
13598;DHT22;38563;54.258;12.574;2022-09-11T08:52:21;18.10;99.90
13598;DHT22;38563;54.258;12.574;2022-09-11T08:54:47;18.20;99.90
13598;DHT22;38563;54.258;12.574;2022-09-11T08:57:20;18.30;99.90
13598;DHT22;38563;54.258;12.574;2022-09-11T09:00:04;18.30;99.90
13598;DHT22;38563;54.258;12.574;2022-09-11T09:03:01;18.40;99.90
13598;DHT22;38563;54.258;12.574;2022-09-11T09:05:40;18.20;99.90
13598;DHT22;38563;54.258;12.574;2022-09-11T09:08:24;18.30;99.90
13598;DHT22;38563;54.258;12.574;2022-09-11T09:11:06;18.30;99.90
13598;DHT22;38563;54.258;12.574;2022-09-11T09:14:05;18.30;99.90
13598;DHT22;38563;54.258;12.574;2022-09-11T09:16:45;18.40;99.90
13598;DHT22;38563;54.258;12.574;2022-09-11T09:19:21;18.50;99.90
13598;DHT22;38563;54.258;12.574;2022-09-11T09:21:58;19.00;99.90
13598;DHT22;38563;54.258;12.574;2022-09-11T09:24:31;19.00;99.90
13598;DHT22;38563;54.258;12.574;2022-09-11T09:27:01;19.00;99.90
13598;DHT22;38563;54.258;12.574;2022-09-11T09:29:35;18.90;99.90
13598;DHT22;38563;54.258;12.574;2022-09-11T09:32:09;18.70;99.90
13598;DHT22;38563;54.258;12.574;2022-09-11T09:34:39;18.60;99.90
13598;DHT22;38563;54.258;12.574;2022-09-11T09:37:14;18.80;99.90
13598;DHT22;38563;54.258;12.574;2022-09-11T09:39:43;18.90;99.90
13598;DHT22;38563;54.258;12.574;2022-09-11T09:42:30;19.00;99.90
13598;DHT22;38563;54.258;12.574;2022-09-11T09:45:17;19.00;99.90
13598;DHT22;38563;54.258;12.574;2022-09-11T09:47:49;19.10;99.90
13598;DHT22;38563;54.258;12.574;2022-09-11T09:50:19;19.10;99.90
13598;DHT22;38563;54.258;12.574;2022-09-11T09:52:47;19.00;99.90
13598;DHT22;38563;54.258;12.574;2022-09-11T09:55:18;19.00;99.90
13598;DHT22;38563;54.258;12.574;2022-09-11T09:57:45;19.00;99.90
13598;DHT22;38563;54.258;12.574;2022-09-11T10:00:15;19.00;99.90
13598;DHT22;38563;54.258;12.574;2022-09-11T10:02:45;19.10;99.90
13598;DHT22;38563;54.258;12.574;2022-09-11T10:05:19;19.10;99.90
13598;DHT22;38563;54.258;12.574;2022-09-11T10:07:49;19.10;99.90
13598;DHT22;38563;54.258;12.574;2022-09-11T10:10:24;19.30;99.90
13598;DHT22;38563;54.258;12.574;2022-09-11T10:12:52;19.40;99.90
13598;DHT22;38563;54.258;12.574;2022-09-11T10:15:21;19.30;99.90
13598;DHT22;38563;54.258;12.574;2022-09-11T10:17:48;19.00;99.90
13598;DHT22;38563;54.258;12.574;2022-09-11T10:20:23;18.80;99.90
13598;DHT22;38563;54.258;12.574;2022-09-11T10:22:52;18.70;99.90
13598;DHT22;38563;54.258;12.574;2022-09-11T10:25:22;18.70;99.90
13598;DHT22;38563;54.258;12.574;2022-09-11T10:27:57;18.90;99.90
13598;DHT22;38563;54.258;12.574;2022-09-11T10:30:28;19.00;99.90
13598;DHT22;38563;54.258;12.574;2022-09-11T10:32:57;19.10;99.90
13598;DHT22;38563;54.258;12.574;2022-09-11T10:35:26;19.10;99.90
13598;DHT22;38563;54.258;12.574;2022-09-11T10:37:59;19.10;99.90
13598;DHT22;38563;54.258;12.574;2022-09-11T10:40:29;18.80;99.90
13598;DHT22;38563;54.258;12.574;2022-09-11T10:42:56;18.70;99.90
13598;DHT22;38563;54.258;12.574;2022-09-11T10:45:23;18.60;99.90
13598;DHT22;38563;54.258;12.574;2022-09-11T10:47:50;18.50;99.90
13598;DHT22;38563;54.258;12.574;2022-09-11T10:50:22;18.60;99.90
13598;DHT22;38563;54.258;12.574;2022-09-11T10:53:06;18.80;99.90
13598;DHT22;38563;54.258;12.574;2022-09-11T10:55:42;18.80;99.90
13598;DHT22;38563;54.258;12.574;2022-09-11T10:58:13;18.90;99.90
13598;DHT22;38563;54.258;12.574;2022-09-11T11:00:41;19.00;99.90
13598;DHT22;38563;54.258;12.574;2022-09-11T11:03:11;19.10;99.90
13598;DHT22;38563;54.258;12.574;2022-09-11T11:05:48;19.20;99.90
13598;DHT22;38563;54.258;12.574;2022-09-11T11:08:45;19.30;99.90
13598;DHT22;38563;54.258;12.574;2022-09-11T11:11:25;19.10;99.90
13598;DHT22;38563;54.258;12.574;2022-09-11T11:14:09;19.20;99.90
13598;DHT22;38563;54.258;12.574;2022-09-11T11:16:45;19.30;99.90
13598;DHT22;38563;54.258;12.574;2022-09-11T11:19:28;19.40;99.90
13598;DHT22;38563;54.258;12.574;2022-09-11T11:22:07;19.50;99.90
13598;DHT22;38563;54.258;12.574;2022-09-11T11:24:52;19.80;99.90
13598;DHT22;38563;54.258;12.574;2022-09-11T11:27:40;19.90;99.90
13598;DHT22;38563;54.258;12.574;2022-09-11T11:30:14;19.90;99.90
13598;DHT22;38563;54.258;12.574;2022-09-11T11:33:05;20.00;99.90
13598;DHT22;38563;54.258;12.574;2022-09-11T11:35:43;20.00;99.90
13598;DHT22;38563;54.258;12.574;2022-09-11T11:38:18;20.10;99.90
13598;DHT22;38563;54.258;12.574;2022-09-11T11:40:48;20.00;99.90
13598;DHT22;38563;54.258;12.574;2022-09-11T11:43:22;19.90;99.90
13598;DHT22;38563;54.258;12.574;2022-09-11T11:45:54;20.00;99.90
13598;DHT22;38563;54.258;12.574;2022-09-11T11:48:25;20.00;99.90
13598;DHT22;38563;54.258;12.574;2022-09-11T11:50:56;20.20;99.90
13598;DHT22;38563;54.258;12.574;2022-09-11T11:53:26;20.10;99.90
13598;DHT22;38563;54.258;12.574;2022-09-11T11:56:07;20.10;99.90
13598;DHT22;38563;54.258;12.574;2022-09-11T11:58:46;20.00;99.90
13598;DHT22;38563;54.258;12.574;2022-09-11T12:01:20;20.00;99.90
13598;DHT22;38563;54.258;12.574;2022-09-11T12:03:51;19.70;99.90
13598;DHT22;38563;54.258;12.574;2022-09-11T12:06:23;19.50;99.90
13598;DHT22;38563;54.258;12.574;2022-09-11T12:08:51;19.40;99.90
13598;DHT22;38563;54.258;12.574;2022-09-11T12:11:27;19.20;99.90
13598;DHT22;38563;54.258;12.574;2022-09-11T12:13:56;19.20;99.90
13598;DHT22;38563;54.258;12.574;2022-09-11T12:16:25;19.20;99.90
13598;DHT22;38563;54.258;12.574;2022-09-11T12:19:04;19.10;99.90
13598;DHT22;38563;54.258;12.574;2022-09-11T12:21:37;19.00;99.90
13598;DHT22;38563;54.258;12.574;2022-09-11T12:24:14;19.10;99.90
13598;DHT22;38563;54.258;12.574;2022-09-11T12:26:42;19.20;99.90
13598;DHT22;38563;54.258;12.574;2022-09-11T12:32:26;19.30;99.90
13598;DHT22;38563;54.258;12.574;2022-09-11T12:37:40;19.60;99.90
13598;DHT22;38563;54.258;12.574;2022-09-11T12:40:14;19.60;99.90
13598;DHT22;38563;54.258;12.574;2022-09-11T12:42:55;19.70;99.90
13598;DHT22;38563;54.258;12.574;2022-09-11T12:45:32;19.60;99.90
13598;DHT22;38563;54.258;12.574;2022-09-11T12:48:09;19.80;99.90
13598;DHT22;38563;54.258;12.574;2022-09-11T12:50:37;20.10;99.90
13598;DHT22;38563;54.258;12.574;2022-09-11T12:53:10;20.20;99.90
13598;DHT22;38563;54.258;12.574;2022-09-11T12:55:50;20.40;99.90
13598;DHT22;38563;54.258;12.574;2022-09-11T12:58:25;20.60;99.90
13598;DHT22;38563;54.258;12.574;2022-09-11T13:01:02;20.70;99.90
13598;DHT22;38563;54.258;12.574;2022-09-11T13:03:32;20.80;99.90
13598;DHT22;38563;54.258;12.574;2022-09-11T13:06:01;20.80;99.90
13598;DHT22;38563;54.258;12.574;2022-09-11T13:08:35;20.80;99.90
13598;DHT22;38563;54.258;12.574;2022-09-11T13:11:38;20.80;99.90
13598;DHT22;38563;54.258;12.574;2022-09-11T13:14:45;20.80;99.90
13598;DHT22;38563;54.258;12.574;2022-09-11T13:17:16;20.70;99.90
13598;DHT22;38563;54.258;12.574;2022-09-11T13:19:52;20.60;99.90
13598;DHT22;38563;54.258;12.574;2022-09-11T13:22:24;20.60;99.90
13598;DHT22;38563;54.258;12.574;2022-09-11T13:25:05;20.60;99.90
13598;DHT22;38563;54.258;12.574;2022-09-11T13:27:33;20.30;99.90
13598;DHT22;38563;54.258;12.574;2022-09-11T13:30:02;20.20;99.90
13598;DHT22;38563;54.258;12.574;2022-09-11T13:32:29;20.10;99.90
13598;DHT22;38563;54.258;12.574;2022-09-11T13:34:58;19.90;99.90
13598;DHT22;38563;54.258;12.574;2022-09-11T13:37:34;20.00;99.90
13598;DHT22;38563;54.258;12.574;2022-09-11T13:40:02;19.80;99.90
13598;DHT22;38563;54.258;12.574;2022-09-11T13:42:29;19.70;99.90
13598;DHT22;38563;54.258;12.574;2022-09-11T13:44:58;19.80;99.90
13598;DHT22;38563;54.258;12.574;2022-09-11T13:47:28;19.80;99.90
13598;DHT22;38563;54.258;12.574;2022-09-11T13:49:59;19.90;99.90
13598;DHT22;38563;54.258;12.574;2022-09-11T13:52:28;19.80;99.90
13598;DHT22;38563;54.258;12.574;2022-09-11T13:54:57;19.80;99.90
13598;DHT22;38563;54.258;12.574;2022-09-11T13:57:26;19.90;99.90
13598;DHT22;38563;54.258;12.574;2022-09-11T13:59:56;20.00;99.90
13598;DHT22;38563;54.258;12.574;2022-09-11T14:02:37;19.90;99.90
13598;DHT22;38563;54.258;12.574;2022-09-11T14:05:13;19.80;99.90
13598;DHT22;38563;54.258;12.574;2022-09-11T14:07:43;19.80;99.90
13598;DHT22;38563;54.258;12.574;2022-09-11T14:10:20;19.80;99.90
13598;DHT22;38563;54.258;12.574;2022-09-11T14:12:53;19.70;99.90
13598;DHT22;38563;54.258;12.574;2022-09-11T14:15:26;19.50;99.90
13598;DHT22;38563;54.258;12.574;2022-09-11T14:17:54;19.60;99.90
13598;DHT22;38563;54.258;12.574;2022-09-11T14:20:22;19.60;99.90
13598;DHT22;38563;54.258;12.574;2022-09-11T14:22:52;19.60;99.90
13598;DHT22;38563;54.258;12.574;2022-09-11T14:25:22;19.70;99.90
13598;DHT22;38563;54.258;12.574;2022-09-11T14:27:49;19.70;99.90
13598;DHT22;38563;54.258;12.574;2022-09-11T14:30:24;19.70;99.90
13598;DHT22;38563;54.258;12.574;2022-09-11T14:33:15;19.60;99.90
13598;DHT22;38563;54.258;12.574;2022-09-11T14:35:45;19.60;99.90
13598;DHT22;38563;54.258;12.574;2022-09-11T14:38:13;19.50;99.90
13598;DHT22;38563;54.258;12.574;2022-09-11T14:40:47;19.40;99.90
13598;DHT22;38563;54.258;12.574;2022-09-11T14:43:15;19.40;99.90
13598;DHT22;38563;54.258;12.574;2022-09-11T14:45:43;19.50;99.90
13598;DHT22;38563;54.258;12.574;2022-09-11T14:48:11;19.40;99.90
13598;DHT22;38563;54.258;12.574;2022-09-11T14:50:39;19.40;99.90
13598;DHT22;38563;54.258;12.574;2022-09-11T14:53:14;19.50;99.90
13598;DHT22;38563;54.258;12.574;2022-09-11T14:55:42;19.50;99.90
13598;DHT22;38563;54.258;12.574;2022-09-11T14:58:09;19.40;99.90
13598;DHT22;38563;54.258;12.574;2022-09-11T15:00:35;19.30;99.90
13598;DHT22;38563;54.258;12.574;2022-09-11T15:03:02;19.20;99.90
13598;DHT22;38563;54.258;12.574;2022-09-11T15:05:29;19.10;99.90
13598;DHT22;38563;54.258;12.574;2022-09-11T15:07:57;18.90;99.90
13598;DHT22;38563;54.258;12.574;2022-09-11T15:10:25;18.70;99.90
13598;DHT22;38563;54.258;12.574;2022-09-11T15:12:51;18.60;99.90
13598;DHT22;38563;54.258;12.574;2022-09-11T15:15:21;18.50;99.90
13598;DHT22;38563;54.258;12.574;2022-09-11T15:17:47;18.50;99.90
13598;DHT22;38563;54.258;12.574;2022-09-11T15:20:14;18.50;99.90
13598;DHT22;38563;54.258;12.574;2022-09-11T15:22:41;18.40;99.90
13598;DHT22;38563;54.258;12.574;2022-09-11T15:25:09;18.40;99.90
13598;DHT22;38563;54.258;12.574;2022-09-11T15:27:37;18.30;99.90
13598;DHT22;38563;54.258;12.574;2022-09-11T15:30:04;18.20;99.90
13598;DHT22;38563;54.258;12.574;2022-09-11T15:32:31;18.20;99.90
13598;DHT22;38563;54.258;12.574;2022-09-11T15:34:58;18.20;99.90
13598;DHT22;38563;54.258;12.574;2022-09-11T15:37:24;18.10;99.90
13598;DHT22;38563;54.258;12.574;2022-09-11T15:39:51;18.10;99.90
13598;DHT22;38563;54.258;12.574;2022-09-11T15:42:18;18.00;99.90
13598;DHT22;38563;54.258;12.574;2022-09-11T15:44:46;18.10;99.90
13598;DHT22;38563;54.258;12.574;2022-09-11T15:47:14;18.10;99.90